createdAt,value
2023-03-17T00:02:48.029Z,3.03
2023-03-17T00:08:49.858Z,3.15
2023-03-17T00:14:51.609Z,3.28
2023-03-17T00:20:53.606Z,3.03
2023-03-17T00:26:55.438Z,3.10
2023-03-17T00:32:58.716Z,3.15
2023-03-17T00:39:03.125Z,3.22
2023-03-17T00:45:05.372Z,3.45
2023-03-17T00:51:08.664Z,3.42
2023-03-17T00:57:11.039Z,3.35
2023-03-17T01:03:13.614Z,3.40
2023-03-17T01:09:18.542Z,3.53
2023-03-17T01:15:22.690Z,3.53
2023-03-17T01:21:25.541Z,3.92
2023-03-17T01:27:27.377Z,3.83
2023-03-17T01:33:29.200Z,4.00
2023-03-17T01:39:31.095Z,3.67
2023-03-17T01:46:14.632Z,3.88
2023-03-17T01:52:20.689Z,3.75
2023-03-17T01:58:24.194Z,3.97
2023-03-17T02:04:26.937Z,4.18
2023-03-17T02:10:30.130Z,3.55
2023-03-17T02:16:32.828Z,4.15
2023-03-17T02:22:34.679Z,4.35
2023-03-17T02:28:36.537Z,4.55
2023-03-17T02:34:38.633Z,4.60
2023-03-17T02:40:40.648Z,4.95
2023-03-17T02:46:42.660Z,4.22
2023-03-17T02:52:44.506Z,4.70
2023-03-17T02:58:46.461Z,4.53
2023-03-17T03:04:48.891Z,4.72
2023-03-17T03:10:50.888Z,4.70
2023-03-17T03:16:52.740Z,5.00
2023-03-17T03:22:54.579Z,4.30
2023-03-17T03:28:58.462Z,4.78
2023-03-17T03:35:00.350Z,4.53
2023-03-17T03:41:02.184Z,4.35
2023-03-17T03:47:04.402Z,5.03
2023-03-17T03:53:06.177Z,4.82
2023-03-17T03:59:08.646Z,4.30
2023-03-17T04:05:10.762Z,4.50
2023-03-17T04:11:12.687Z,5.47
2023-03-17T04:17:14.805Z,4.20
2023-03-17T04:23:16.628Z,4.88
2023-03-17T04:29:19.085Z,4.78
2023-03-17T04:35:22.518Z,5.15
2023-03-17T04:41:24.370Z,4.50
2023-03-17T04:47:26.222Z,4.78
2023-03-17T04:53:28.552Z,4.93
2023-03-17T04:59:30.336Z,4.70
2023-03-17T05:05:32.793Z,5.00
2023-03-17T05:11:34.547Z,4.75
2023-03-17T05:17:36.370Z,4.68
2023-03-17T05:23:38.238Z,4.30
2023-03-17T05:29:40.126Z,4.60
2023-03-17T05:35:42.091Z,4.88
2023-03-17T05:41:43.875Z,4.47
2023-03-17T05:47:48.245Z,4.60
2023-03-17T05:53:50.032Z,4.95
2023-03-17T05:59:51.861Z,4.93
2023-03-17T06:05:53.638Z,5.57
2023-03-17T06:11:55.459Z,5.35
2023-03-17T06:17:57.247Z,4.82
2023-03-17T06:23:59.045Z,4.65
2023-03-17T06:30:01.098Z,4.63
2023-03-17T06:36:03.272Z,4.75
2023-03-17T06:42:06.391Z,5.30
2023-03-17T06:48:08.226Z,4.13
2023-03-17T06:54:10.002Z,5.10
2023-03-17T07:00:14.227Z,4.65
2023-03-17T07:06:16.365Z,4.57
2023-03-17T07:12:18.676Z,4.70
2023-03-17T07:18:20.537Z,3.97
2023-03-17T07:24:23.008Z,4.68
2023-03-17T07:30:24.850Z,3.90
2023-03-17T07:36:27.407Z,4.18
2023-03-17T07:42:30.158Z,4.60
2023-03-17T07:48:33.297Z,4.45
2023-03-17T07:54:36.258Z,4.22
2023-03-17T08:00:40.266Z,4.40
2023-03-17T08:06:42.753Z,4.57
2023-03-17T08:12:44.609Z,3.85
2023-03-17T08:18:46.692Z,4.40
2023-03-17T08:24:48.898Z,4.05
2023-03-17T08:30:50.947Z,3.65
2023-03-17T08:36:53.190Z,3.35
2023-03-17T08:42:55.027Z,3.65
2023-03-17T08:48:59.094Z,3.65
2023-03-17T08:55:01.002Z,3.47
2023-03-17T09:01:04.439Z,3.42
2023-03-17T09:07:09.535Z,3.33
2023-03-17T09:13:11.977Z,2.85
2023-03-17T09:19:13.764Z,2.83
2023-03-17T09:25:16.303Z,2.92
2023-03-17T09:31:18.662Z,2.78
2023-03-17T09:37:20.415Z,2.83
2023-03-17T09:43:54.551Z,3.13
2023-03-17T09:50:00.146Z,3.22
2023-03-17T09:56:29.981Z,2.70
2023-03-17T10:02:37.611Z,2.67
2023-03-17T10:08:48.597Z,2.90
2023-03-17T10:15:30.553Z,2.85
2023-03-17T10:21:35.437Z,2.70
2023-03-17T10:27:38.507Z,2.70
2023-03-17T10:33:40.436Z,2.67
2023-03-17T10:39:48.508Z,2.97
2023-03-17T10:46:27.108Z,2.50
2023-03-17T10:58:45.101Z,2.53
2023-03-17T11:04:53.083Z,2.70
2023-03-17T11:10:56.689Z,2.28
2023-03-17T11:17:01.048Z,2.28
2023-03-17T11:23:22.390Z,1.70
2023-03-17T11:29:37.477Z,2.10
2023-03-17T11:35:46.059Z,1.80
2023-03-17T11:41:51.012Z,1.90
2023-03-17T11:48:31.788Z,1.77
2023-03-17T11:55:07.841Z,1.58
2023-03-17T12:01:18.003Z,1.65
2023-03-17T12:07:30.365Z,1.80
2023-03-17T12:13:32.567Z,1.88
2023-03-17T12:19:53.890Z,2.00
2023-03-17T12:26:07.797Z,1.92
2023-03-17T12:32:18.258Z,1.92
2023-03-17T12:38:36.313Z,2.13
2023-03-17T12:44:57.616Z,1.95
2023-03-17T12:51:06.610Z,1.75
2023-03-17T12:57:21.415Z,2.00
2023-03-17T13:03:26.606Z,1.80
2023-03-17T13:09:33.084Z,1.70
2023-03-17T13:15:36.097Z,1.70
2023-03-17T13:21:39.045Z,1.67
2023-03-17T13:27:43.850Z,1.80
2023-03-17T13:33:52.062Z,1.60
2023-03-17T13:39:56.834Z,1.60
2023-03-17T13:46:25.584Z,1.60
2023-03-17T13:52:33.333Z,1.60
2023-03-17T13:58:48.951Z,1.73
2023-03-17T14:04:58.115Z,1.90
2023-03-17T14:11:02.793Z,1.50
2023-03-17T14:17:16.448Z,1.80
2023-03-17T14:23:18.321Z,1.90
2023-03-17T14:29:25.356Z,1.80
2023-03-17T14:35:36.285Z,1.90
2023-03-17T14:41:38.110Z,1.88
2023-03-17T14:47:43.225Z,1.70
2023-03-17T14:53:46.541Z,1.90
2023-03-17T15:00:05.088Z,1.60
2023-03-17T15:06:28.145Z,2.05
2023-03-17T15:12:31.245Z,2.40
2023-03-17T15:18:33.298Z,1.88
2023-03-17T15:24:43.920Z,1.90
2023-03-17T15:30:55.053Z,1.80
2023-03-17T15:36:57.993Z,1.77
2023-03-17T15:43:00.601Z,1.67
2023-03-17T15:49:02.461Z,1.75
2023-03-17T15:55:14.680Z,1.92
2023-03-17T16:01:17.035Z,1.90
2023-03-17T16:07:19.468Z,1.50
2023-03-17T16:13:22.321Z,1.60
2023-03-17T16:19:24.816Z,1.65
2023-03-17T16:25:29.312Z,2.17
2023-03-17T16:31:31.182Z,1.77
2023-03-17T16:37:33.033Z,2.40
2023-03-17T16:43:39.948Z,2.75
2023-03-17T16:49:41.762Z,2.30
2023-03-17T16:55:45.024Z,2.30
2023-03-17T17:01:47.242Z,2.42
2023-03-17T17:07:49.920Z,2.42
2023-03-17T17:13:51.800Z,2.50
2023-03-17T17:19:53.654Z,2.20
2023-03-17T17:25:55.676Z,2.42
2023-03-17T17:32:03.047Z,2.30
2023-03-17T17:38:05.369Z,2.67
2023-03-17T17:44:07.624Z,2.40
2023-03-17T17:50:12.287Z,2.42
2023-03-17T17:56:17.811Z,2.20
2023-03-17T18:02:19.757Z,2.55
2023-03-17T18:08:22.339Z,2.30
2023-03-17T18:14:24.498Z,2.50
2023-03-17T18:20:30.380Z,2.60
2023-03-17T18:26:33.158Z,2.72
2023-03-17T18:32:35.366Z,2.88
2023-03-17T18:38:38.132Z,2.53
2023-03-17T18:44:40.056Z,2.85
2023-03-17T18:50:41.921Z,2.92
2023-03-17T18:56:43.704Z,2.40
2023-03-17T19:02:46.440Z,2.63
2023-03-17T19:08:48.507Z,2.33
2023-03-17T19:14:50.351Z,2.78
2023-03-17T19:20:52.521Z,2.05
2023-03-17T19:26:56.409Z,2.53
2023-03-17T19:32:58.244Z,1.98
2023-03-17T19:39:00.044Z,2.22
2023-03-17T19:45:02.065Z,2.10
2023-03-17T19:51:04.547Z,2.47
2023-03-17T19:57:06.379Z,2.30
2023-03-17T20:03:08.493Z,2.10
2023-03-17T20:09:10.252Z,2.30
2023-03-17T20:15:16.471Z,2.30
2023-03-17T20:21:18.366Z,2.38
2023-03-17T20:27:21.691Z,2.25
2023-03-17T20:33:24.484Z,2.30
2023-03-17T20:39:26.522Z,2.30
2023-03-17T20:45:28.490Z,2.15
2023-03-17T20:51:30.818Z,2.20
2023-03-17T20:57:33.358Z,2.17
2023-03-17T21:03:35.383Z,1.92
2023-03-17T21:09:37.117Z,2.00
2023-03-17T21:15:39.450Z,2.00
2023-03-17T21:21:41.290Z,2.15
2023-03-17T21:27:43.249Z,1.90
2023-03-17T21:33:48.382Z,1.80
2023-03-17T21:39:50.110Z,2.25
2023-03-17T21:45:51.982Z,2.00
2023-03-17T21:51:54.730Z,2.35
2023-03-17T21:57:56.494Z,2.40
2023-03-17T22:03:58.238Z,2.17
2023-03-17T22:10:01.162Z,2.00
2023-03-17T22:16:04.313Z,2.08
2023-03-17T22:22:06.381Z,2.53
2023-03-17T22:28:10.894Z,2.75
2023-03-17T22:34:12.681Z,3.08
2023-03-17T22:40:14.808Z,2.85
2023-03-17T22:46:17.814Z,2.55
2023-03-17T22:52:22.363Z,2.80
2023-03-17T22:58:24.519Z,2.85
2023-03-17T23:04:26.369Z,2.97
2023-03-17T23:10:28.557Z,2.65
2023-03-17T23:16:31.312Z,2.20
2023-03-17T23:22:33.147Z,2.50
2023-03-17T23:28:34.936Z,2.60
2023-03-17T23:34:37.056Z,2.65
2023-03-17T23:40:39.636Z,2.58
2023-03-17T23:46:41.377Z,2.67
2023-03-17T23:52:43.536Z,2.65
2023-03-17T23:58:45.838Z,2.80
